Terminal Aerodrome Forecast
Issued by NWS Grand Forks, ND

Home | Current Version | Previous Version | Graphics & Text | Print | Product List | Glossary On
Versions: 1 2 3 4 5 6 7 8 9 10 11 12 13 14 15
000
FTUS43 KFGF 241720
TAFFAR
TAF
KFAR 241720Z 2418/2518 12007G15KT P6SM SCT050
     FM242200 15012G18KT P6SM SCT110
     FM251200 14014G22KT P6SM BKN200=

USA.gov is the U.S. government's official web portal to all federal, state and local government web resources and services.